Terminal Aerodrome Forecast
Issued by NWS Greer, SC

Home | Current Version | Previous Version | Text Only | Print | Product List | Glossary On
Versions: 1 2 3 4 5 6 7 8 9 10 11 12 13 14 15 16 17 18 19 20 21 22
000
FTUS42 KGSP 230534
TAFCLT
TAF
KCLT 230534Z 2306/2406 22005KT P6SM FEW250
     FM231500 23005KT P6SM SCT050
     FM231800 25007KT P6SM BKN050 PROB30 2318/2324 4SM -TSRA
      OVC035CB
     FM240000 32004KT P6SM BKN050 PROB30 2400/2404 4SM -TSRA
      OVC035CB=

USA.gov is the U.S. government's official web portal to all federal, state and local government web resources and services.